sensor_id;sensor_type;location;lat;lon;timestamp;temperature;humidity
20680;DHT22;10499;47.494;7.608;2022-10-16T00:01:48;14.60;99.90
20680;DHT22;10499;47.494;7.608;2022-10-16T00:04:14;14.60;99.90
20680;DHT22;10499;47.494;7.608;2022-10-16T00:06:39;14.70;99.90
20680;DHT22;10499;47.494;7.608;2022-10-16T00:09:05;14.70;99.90
20680;DHT22;10499;47.494;7.608;2022-10-16T00:11:35;14.70;99.90
20680;DHT22;10499;47.494;7.608;2022-10-16T00:14:04;14.60;99.90
20680;DHT22;10499;47.494;7.608;2022-10-16T00:16:30;14.60;99.90
20680;DHT22;10499;47.494;7.608;2022-10-16T00:18:56;14.60;99.90
20680;DHT22;10499;47.494;7.608;2022-10-16T00:21:25;14.60;99.90
20680;DHT22;10499;47.494;7.608;2022-10-16T00:23:56;14.50;99.90
20680;DHT22;10499;47.494;7.608;2022-10-16T00:26:25;14.50;99.90
20680;DHT22;10499;47.494;7.608;2022-10-16T00:28:51;14.50;99.90
20680;DHT22;10499;47.494;7.608;2022-10-16T00:31:20;14.60;99.90
20680;DHT22;10499;47.494;7.608;2022-10-16T00:33:46;14.50;99.90
20680;DHT22;10499;47.494;7.608;2022-10-16T00:36:15;14.50;99.90
20680;DHT22;10499;47.494;7.608;2022-10-16T00:38:41;14.50;99.90
20680;DHT22;10499;47.494;7.608;2022-10-16T00:41:09;14.50;99.90
20680;DHT22;10499;47.494;7.608;2022-10-16T00:46:25;14.50;99.90
20680;DHT22;10499;47.494;7.608;2022-10-16T00:49:00;14.50;99.90
20680;DHT22;10499;47.494;7.608;2022-10-16T00:51:34;14.50;99.90
20680;DHT22;10499;47.494;7.608;2022-10-16T00:54:03;14.50;99.90
20680;DHT22;10499;47.494;7.608;2022-10-16T00:56:29;14.40;99.90
20680;DHT22;10499;47.494;7.608;2022-10-16T00:58:55;14.40;99.90
20680;DHT22;10499;47.494;7.608;2022-10-16T01:01:21;14.40;99.90
20680;DHT22;10499;47.494;7.608;2022-10-16T01:03:47;14.40;99.90
20680;DHT22;10499;47.494;7.608;2022-10-16T01:09:23;14.40;99.90
20680;DHT22;10499;47.494;7.608;2022-10-16T01:12:06;14.40;99.90
20680;DHT22;10499;47.494;7.608;2022-10-16T01:17:19;14.30;99.90
20680;DHT22;10499;47.494;7.608;2022-10-16T01:20:14;14.30;99.90
20680;DHT22;10499;47.494;7.608;2022-10-16T01:25:53;14.20;99.90
20680;DHT22;10499;47.494;7.608;2022-10-16T01:28:28;14.10;99.90
20680;DHT22;10499;47.494;7.608;2022-10-16T01:30:58;14.10;99.90
20680;DHT22;10499;47.494;7.608;2022-10-16T01:33:28;14.10;99.90
20680;DHT22;10499;47.494;7.608;2022-10-16T01:36:00;14.10;99.90
20680;DHT22;10499;47.494;7.608;2022-10-16T01:38:36;14.10;99.90
20680;DHT22;10499;47.494;7.608;2022-10-16T01:41:30;14.00;99.90
20680;DHT22;10499;47.494;7.608;2022-10-16T01:44:10;14.00;99.90
20680;DHT22;10499;47.494;7.608;2022-10-16T01:46:39;13.90;99.90
20680;DHT22;10499;47.494;7.608;2022-10-16T01:49:06;13.80;99.90
20680;DHT22;10499;47.494;7.608;2022-10-16T01:51:35;13.70;99.90
20680;DHT22;10499;47.494;7.608;2022-10-16T01:54:02;13.70;99.90
20680;DHT22;10499;47.494;7.608;2022-10-16T01:59:16;13.70;99.90
20680;DHT22;10499;47.494;7.608;2022-10-16T02:01:47;13.70;99.90
20680;DHT22;10499;47.494;7.608;2022-10-16T02:04:19;13.70;99.90
20680;DHT22;10499;47.494;7.608;2022-10-16T02:06:46;13.70;99.90
20680;DHT22;10499;47.494;7.608;2022-10-16T02:09:12;13.70;99.90
20680;DHT22;10499;47.494;7.608;2022-10-16T02:11:40;13.70;99.90
20680;DHT22;10499;47.494;7.608;2022-10-16T02:14:07;13.80;99.90
20680;DHT22;10499;47.494;7.608;2022-10-16T02:16:44;13.80;99.90
20680;DHT22;10499;47.494;7.608;2022-10-16T02:19:14;13.80;99.90
20680;DHT22;10499;47.494;7.608;2022-10-16T02:24:11;13.70;99.90
20680;DHT22;10499;47.494;7.608;2022-10-16T02:27:06;13.70;99.90
20680;DHT22;10499;47.494;7.608;2022-10-16T02:29:40;13.70;99.90
20680;DHT22;10499;47.494;7.608;2022-10-16T02:32:10;13.70;99.90
20680;DHT22;10499;47.494;7.608;2022-10-16T02:34:39;13.70;99.90
20680;DHT22;10499;47.494;7.608;2022-10-16T02:37:06;13.70;99.90
20680;DHT22;10499;47.494;7.608;2022-10-16T02:39:32;13.70;99.90
20680;DHT22;10499;47.494;7.608;2022-10-16T02:41:59;13.70;99.90
20680;DHT22;10499;47.494;7.608;2022-10-16T02:44:24;13.70;99.90
20680;DHT22;10499;47.494;7.608;2022-10-16T02:46:50;13.70;99.90
20680;DHT22;10499;47.494;7.608;2022-10-16T02:49:16;13.70;99.90
20680;DHT22;10499;47.494;7.608;2022-10-16T02:51:41;13.70;99.90
20680;DHT22;10499;47.494;7.608;2022-10-16T02:56:33;13.80;99.90
20680;DHT22;10499;47.494;7.608;2022-10-16T02:58:59;13.80;99.90
20680;DHT22;10499;47.494;7.608;2022-10-16T03:01:24;13.80;99.90
20680;DHT22;10499;47.494;7.608;2022-10-16T03:03:50;13.80;99.90
20680;DHT22;10499;47.494;7.608;2022-10-16T03:06:16;13.80;99.90
20680;DHT22;10499;47.494;7.608;2022-10-16T03:08:41;13.80;99.90
20680;DHT22;10499;47.494;7.608;2022-10-16T03:11:07;13.90;99.90
20680;DHT22;10499;47.494;7.608;2022-10-16T03:13:33;13.90;99.90
20680;DHT22;10499;47.494;7.608;2022-10-16T03:15:58;13.90;99.90
20680;DHT22;10499;47.494;7.608;2022-10-16T03:18:24;13.90;99.90
20680;DHT22;10499;47.494;7.608;2022-10-16T03:20:50;13.90;99.90
20680;DHT22;10499;47.494;7.608;2022-10-16T03:23:16;13.90;99.90
20680;DHT22;10499;47.494;7.608;2022-10-16T03:25:41;13.80;99.90
20680;DHT22;10499;47.494;7.608;2022-10-16T03:28:07;13.80;99.90
20680;DHT22;10499;47.494;7.608;2022-10-16T03:30:32;13.80;99.90
20680;DHT22;10499;47.494;7.608;2022-10-16T03:32:58;13.70;99.90
20680;DHT22;10499;47.494;7.608;2022-10-16T03:35:24;13.70;99.90
20680;DHT22;10499;47.494;7.608;2022-10-16T03:37:50;13.70;99.90
20680;DHT22;10499;47.494;7.608;2022-10-16T03:40:16;13.70;99.90
20680;DHT22;10499;47.494;7.608;2022-10-16T03:42:43;13.70;99.90
20680;DHT22;10499;47.494;7.608;2022-10-16T03:45:09;13.70;99.90
20680;DHT22;10499;47.494;7.608;2022-10-16T03:47:35;13.70;99.90
20680;DHT22;10499;47.494;7.608;2022-10-16T03:50:00;13.70;99.90
20680;DHT22;10499;47.494;7.608;2022-10-16T03:52:26;13.60;99.90
20680;DHT22;10499;47.494;7.608;2022-10-16T03:54:52;13.60;99.90
20680;DHT22;10499;47.494;7.608;2022-10-16T03:57:18;13.60;99.90
20680;DHT22;10499;47.494;7.608;2022-10-16T03:59:43;13.60;99.90
20680;DHT22;10499;47.494;7.608;2022-10-16T04:02:09;13.60;99.90
20680;DHT22;10499;47.494;7.608;2022-10-16T04:04:35;13.60;99.90
20680;DHT22;10499;47.494;7.608;2022-10-16T04:07:00;13.60;99.90
20680;DHT22;10499;47.494;7.608;2022-10-16T04:09:26;13.60;99.90
20680;DHT22;10499;47.494;7.608;2022-10-16T04:11:52;13.60;99.90
20680;DHT22;10499;47.494;7.608;2022-10-16T04:14:18;13.60;99.90
20680;DHT22;10499;47.494;7.608;2022-10-16T04:16:44;13.60;99.90
20680;DHT22;10499;47.494;7.608;2022-10-16T04:19:10;13.60;99.90
20680;DHT22;10499;47.494;7.608;2022-10-16T04:21:37;13.50;99.90
20680;DHT22;10499;47.494;7.608;2022-10-16T04:24:03;13.60;99.90
20680;DHT22;10499;47.494;7.608;2022-10-16T04:26:29;13.60;99.90
20680;DHT22;10499;47.494;7.608;2022-10-16T04:28:55;13.50;99.90
20680;DHT22;10499;47.494;7.608;2022-10-16T04:31:22;13.60;99.90
20680;DHT22;10499;47.494;7.608;2022-10-16T04:33:48;13.60;99.90
20680;DHT22;10499;47.494;7.608;2022-10-16T04:36:13;13.60;99.90
20680;DHT22;10499;47.494;7.608;2022-10-16T04:38:39;13.60;99.90
20680;DHT22;10499;47.494;7.608;2022-10-16T04:41:06;13.60;99.90
20680;DHT22;10499;47.494;7.608;2022-10-16T04:43:32;13.60;99.90
20680;DHT22;10499;47.494;7.608;2022-10-16T04:45:58;13.60;99.90
20680;DHT22;10499;47.494;7.608;2022-10-16T04:48:23;13.60;99.90
20680;DHT22;10499;47.494;7.608;2022-10-16T04:50:49;13.60;99.90
20680;DHT22;10499;47.494;7.608;2022-10-16T04:53:15;13.60;99.90
20680;DHT22;10499;47.494;7.608;2022-10-16T04:55:41;13.60;99.90
20680;DHT22;10499;47.494;7.608;2022-10-16T04:58:07;13.70;99.90
20680;DHT22;10499;47.494;7.608;2022-10-16T05:00:33;13.60;99.90
20680;DHT22;10499;47.494;7.608;2022-10-16T05:02:59;13.70;99.90
20680;DHT22;10499;47.494;7.608;2022-10-16T05:05:26;13.70;99.90
20680;DHT22;10499;47.494;7.608;2022-10-16T05:07:52;13.70;99.90
20680;DHT22;10499;47.494;7.608;2022-10-16T05:10:18;13.70;99.90
20680;DHT22;10499;47.494;7.608;2022-10-16T05:12:44;13.70;99.90
20680;DHT22;10499;47.494;7.608;2022-10-16T05:15:10;13.60;99.90
20680;DHT22;10499;47.494;7.608;2022-10-16T05:17:36;13.60;99.90
20680;DHT22;10499;47.494;7.608;2022-10-16T05:20:02;13.60;99.90
20680;DHT22;10499;47.494;7.608;2022-10-16T05:22:28;13.60;99.90
20680;DHT22;10499;47.494;7.608;2022-10-16T05:24:54;13.50;99.90
20680;DHT22;10499;47.494;7.608;2022-10-16T05:27:20;13.50;99.90
20680;DHT22;10499;47.494;7.608;2022-10-16T05:29:46;13.60;99.90
20680;DHT22;10499;47.494;7.608;2022-10-16T05:32:13;13.60;99.90
20680;DHT22;10499;47.494;7.608;2022-10-16T05:34:39;13.60;99.90
20680;DHT22;10499;47.494;7.608;2022-10-16T05:37:05;13.60;99.90
20680;DHT22;10499;47.494;7.608;2022-10-16T05:39:30;13.60;99.90
20680;DHT22;10499;47.494;7.608;2022-10-16T05:41:56;13.60;99.90
20680;DHT22;10499;47.494;7.608;2022-10-16T05:44:22;13.70;99.90
20680;DHT22;10499;47.494;7.608;2022-10-16T05:46:47;13.70;99.90
20680;DHT22;10499;47.494;7.608;2022-10-16T05:49:13;13.70;99.90
20680;DHT22;10499;47.494;7.608;2022-10-16T05:51:39;13.70;99.90
20680;DHT22;10499;47.494;7.608;2022-10-16T05:54:05;13.70;99.90
20680;DHT22;10499;47.494;7.608;2022-10-16T05:56:30;13.60;99.90
20680;DHT22;10499;47.494;7.608;2022-10-16T05:58:56;13.60;99.90
20680;DHT22;10499;47.494;7.608;2022-10-16T06:01:22;13.60;99.90
20680;DHT22;10499;47.494;7.608;2022-10-16T06:03:50;13.60;99.90
20680;DHT22;10499;47.494;7.608;2022-10-16T06:06:21;13.60;99.90
20680;DHT22;10499;47.494;7.608;2022-10-16T06:08:48;13.60;99.90
20680;DHT22;10499;47.494;7.608;2022-10-16T06:11:16;13.60;99.90
20680;DHT22;10499;47.494;7.608;2022-10-16T06:13:43;13.60;99.90
20680;DHT22;10499;47.494;7.608;2022-10-16T06:16:11;13.60;99.90
20680;DHT22;10499;47.494;7.608;2022-10-16T06:18:37;13.70;99.90
20680;DHT22;10499;47.494;7.608;2022-10-16T06:21:09;13.60;99.90
20680;DHT22;10499;47.494;7.608;2022-10-16T06:23:35;13.70;99.90
20680;DHT22;10499;47.494;7.608;2022-10-16T06:26:07;13.70;99.90
20680;DHT22;10499;47.494;7.608;2022-10-16T06:28:34;13.70;99.90
20680;DHT22;10499;47.494;7.608;2022-10-16T06:31:00;13.70;99.90
20680;DHT22;10499;47.494;7.608;2022-10-16T06:33:26;13.80;99.90
20680;DHT22;10499;47.494;7.608;2022-10-16T06:35:52;13.90;99.90
20680;DHT22;10499;47.494;7.608;2022-10-16T06:38:18;14.00;99.90
20680;DHT22;10499;47.494;7.608;2022-10-16T06:40:43;14.10;99.90
20680;DHT22;10499;47.494;7.608;2022-10-16T06:43:09;14.30;99.90
20680;DHT22;10499;47.494;7.608;2022-10-16T06:45:36;14.50;99.90
20680;DHT22;10499;47.494;7.608;2022-10-16T06:48:01;14.60;99.90
20680;DHT22;10499;47.494;7.608;2022-10-16T06:50:27;14.70;99.90
20680;DHT22;10499;47.494;7.608;2022-10-16T06:52:52;14.80;99.90
20680;DHT22;10499;47.494;7.608;2022-10-16T06:55:18;14.90;99.90
20680;DHT22;10499;47.494;7.608;2022-10-16T06:57:46;15.00;99.90
20680;DHT22;10499;47.494;7.608;2022-10-16T07:00:12;15.10;99.90
20680;DHT22;10499;47.494;7.608;2022-10-16T07:02:37;15.00;99.90
20680;DHT22;10499;47.494;7.608;2022-10-16T07:05:03;15.10;99.90
20680;DHT22;10499;47.494;7.608;2022-10-16T07:07:29;15.10;99.90
20680;DHT22;10499;47.494;7.608;2022-10-16T07:09:55;15.40;99.90
20680;DHT22;10499;47.494;7.608;2022-10-16T07:12:20;15.60;99.90
20680;DHT22;10499;47.494;7.608;2022-10-16T07:14:46;16.00;99.90
20680;DHT22;10499;47.494;7.608;2022-10-16T07:27:29;17.60;99.90
20680;DHT22;10499;47.494;7.608;2022-10-16T07:29:55;18.60;99.90
20680;DHT22;10499;47.494;7.608;2022-10-16T07:34:47;21.40;99.90
20680;DHT22;10499;47.494;7.608;2022-10-16T07:37:12;22.40;99.90
20680;DHT22;10499;47.494;7.608;2022-10-16T07:39:38;23.20;94.40
20680;DHT22;10499;47.494;7.608;2022-10-16T07:42:04;23.90;91.70
20680;DHT22;10499;47.494;7.608;2022-10-16T07:44:29;24.40;90.90
20680;DHT22;10499;47.494;7.608;2022-10-16T07:46:55;26.30;83.00
20680;DHT22;10499;47.494;7.608;2022-10-16T07:49:20;27.90;75.40
20680;DHT22;10499;47.494;7.608;2022-10-16T07:51:46;29.40;69.70
20680;DHT22;10499;47.494;7.608;2022-10-16T07:54:12;30.90;66.10
20680;DHT22;10499;47.494;7.608;2022-10-16T07:56:37;33.30;54.50
20680;DHT22;10499;47.494;7.608;2022-10-16T07:59:03;33.20;54.90
20680;DHT22;10499;47.494;7.608;2022-10-16T08:01:28;34.30;53.10
20680;DHT22;10499;47.494;7.608;2022-10-16T08:03:54;34.90;49.80
20680;DHT22;10499;47.494;7.608;2022-10-16T08:06:21;35.00;49.50
20680;DHT22;10499;47.494;7.608;2022-10-16T08:08:47;35.40;48.90
20680;DHT22;10499;47.494;7.608;2022-10-16T08:11:15;35.50;47.80
20680;DHT22;10499;47.494;7.608;2022-10-16T08:13:41;36.20;46.70
20680;DHT22;10499;47.494;7.608;2022-10-16T08:16:07;36.70;45.50
20680;DHT22;10499;47.494;7.608;2022-10-16T08:18:40;37.30;44.50
20680;DHT22;10499;47.494;7.608;2022-10-16T08:21:08;37.50;43.80
20680;DHT22;10499;47.494;7.608;2022-10-16T08:23:37;36.60;43.70
20680;DHT22;10499;47.494;7.608;2022-10-16T08:26:05;33.80;47.40
20680;DHT22;10499;47.494;7.608;2022-10-16T08:28:35;33.20;50.10
20680;DHT22;10499;47.494;7.608;2022-10-16T08:31:10;34.50;48.50
20680;DHT22;10499;47.494;7.608;2022-10-16T08:33:40;36.40;45.90
20680;DHT22;10499;47.494;7.608;2022-10-16T08:36:06;37.90;43.10
20680;DHT22;10499;47.494;7.608;2022-10-16T08:38:33;38.10;42.10
20680;DHT22;10499;47.494;7.608;2022-10-16T08:41:21;37.90;42.80
20680;DHT22;10499;47.494;7.608;2022-10-16T08:44:24;39.20;40.70
20680;DHT22;10499;47.494;7.608;2022-10-16T08:47:12;39.60;38.40
20680;DHT22;10499;47.494;7.608;2022-10-16T08:49:41;36.50;42.50
20680;DHT22;10499;47.494;7.608;2022-10-16T08:52:12;34.20;46.70
20680;DHT22;10499;47.494;7.608;2022-10-16T08:54:43;31.50;50.20
20680;DHT22;10499;47.494;7.608;2022-10-16T08:57:21;31.40;53.70
20680;DHT22;10499;47.494;7.608;2022-10-16T08:59:53;32.40;51.20
20680;DHT22;10499;47.494;7.608;2022-10-16T09:10:55;36.00;45.00
20680;DHT22;10499;47.494;7.608;2022-10-16T09:16:35;35.80;45.10
20680;DHT22;10499;47.494;7.608;2022-10-16T09:21:47;32.70;49.60
20680;DHT22;10499;47.494;7.608;2022-10-16T09:24:21;32.10;51.20
20680;DHT22;10499;47.494;7.608;2022-10-16T09:26:49;32.40;51.70
20680;DHT22;10499;47.494;7.608;2022-10-16T09:29:38;34.30;49.40
20680;DHT22;10499;47.494;7.608;2022-10-16T09:32:13;37.10;45.00
20680;DHT22;10499;47.494;7.608;2022-10-16T09:34:47;39.50;41.40
20680;DHT22;10499;47.494;7.608;2022-10-16T09:37:18;41.00;38.80
20680;DHT22;10499;47.494;7.608;2022-10-16T09:39:54;41.40;38.40
20680;DHT22;10499;47.494;7.608;2022-10-16T09:42:22;41.70;37.10
20680;DHT22;10499;47.494;7.608;2022-10-16T09:44:52;41.40;36.70
20680;DHT22;10499;47.494;7.608;2022-10-16T09:49:57;44.00;34.50
20680;DHT22;10499;47.494;7.608;2022-10-16T09:52:25;44.40;33.60
20680;DHT22;10499;47.494;7.608;2022-10-16T09:54:59;43.70;34.10
20680;DHT22;10499;47.494;7.608;2022-10-16T09:57:26;43.40;34.70
20680;DHT22;10499;47.494;7.608;2022-10-16T09:59:53;43.50;34.40
20680;DHT22;10499;47.494;7.608;2022-10-16T10:02:36;44.60;33.60
20680;DHT22;10499;47.494;7.608;2022-10-16T10:05:16;45.70;32.40
20680;DHT22;10499;47.494;7.608;2022-10-16T10:07:57;46.30;31.40
20680;DHT22;10499;47.494;7.608;2022-10-16T10:10:34;45.40;32.30
20680;DHT22;10499;47.494;7.608;2022-10-16T10:13:00;45.20;32.60
20680;DHT22;10499;47.494;7.608;2022-10-16T10:15:29;45.10;32.70
20680;DHT22;10499;47.494;7.608;2022-10-16T10:17:58;44.90;33.50
20680;DHT22;10499;47.494;7.608;2022-10-16T10:22:50;47.00;31.40
20680;DHT22;10499;47.494;7.608;2022-10-16T10:36:37;48.80;28.50
20680;DHT22;10499;47.494;7.608;2022-10-16T10:39:16;48.80;29.00
20680;DHT22;10499;47.494;7.608;2022-10-16T10:42:06;48.40;29.30
20680;DHT22;10499;47.494;7.608;2022-10-16T10:44:42;48.30;29.40
20680;DHT22;10499;47.494;7.608;2022-10-16T10:53:36;49.60;28.70
20680;DHT22;10499;47.494;7.608;2022-10-16T10:56:26;50.70;27.80
20680;DHT22;10499;47.494;7.608;2022-10-16T10:59:21;50.70;27.40
20680;DHT22;10499;47.494;7.608;2022-10-16T11:01:54;50.60;27.80
20680;DHT22;10499;47.494;7.608;2022-10-16T11:07:09;49.10;28.40
20680;DHT22;10499;47.494;7.608;2022-10-16T11:09:47;48.20;29.20
20680;DHT22;10499;47.494;7.608;2022-10-16T11:12:25;48.10;29.40
20680;DHT22;10499;47.494;7.608;2022-10-16T11:15:20;47.90;29.90
20680;DHT22;10499;47.494;7.608;2022-10-16T11:18:13;47.30;29.80
20680;DHT22;10499;47.494;7.608;2022-10-16T11:20:57;46.90;30.90
20680;DHT22;10499;47.494;7.608;2022-10-16T11:23:30;46.50;34.30
20680;DHT22;10499;47.494;7.608;2022-10-16T11:26:00;46.20;31.70
20680;DHT22;10499;47.494;7.608;2022-10-16T11:28:39;46.00;32.40
20680;DHT22;10499;47.494;7.608;2022-10-16T11:34:17;44.90;33.40
20680;DHT22;10499;47.494;7.608;2022-10-16T11:36:46;44.40;35.00
20680;DHT22;10499;47.494;7.608;2022-10-16T11:39:34;44.90;33.90
20680;DHT22;10499;47.494;7.608;2022-10-16T11:42:13;45.40;32.90
20680;DHT22;10499;47.494;7.608;2022-10-16T11:44:46;45.70;33.10
20680;DHT22;10499;47.494;7.608;2022-10-16T11:47:36;46.60;32.20
20680;DHT22;10499;47.494;7.608;2022-10-16T11:50:26;46.50;32.10
20680;DHT22;10499;47.494;7.608;2022-10-16T11:53:27;46.00;32.50
20680;DHT22;10499;47.494;7.608;2022-10-16T11:55:57;45.20;33.30
20680;DHT22;10499;47.494;7.608;2022-10-16T12:03:42;43.90;45.60
20680;DHT22;10499;47.494;7.608;2022-10-16T12:08:45;41.80;38.70
20680;DHT22;10499;47.494;7.608;2022-10-16T12:11:33;42.60;36.90
20680;DHT22;10499;47.494;7.608;2022-10-16T12:14:18;43.70;35.80
20680;DHT22;10499;47.494;7.608;2022-10-16T12:19:20;46.90;31.80
20680;DHT22;10499;47.494;7.608;2022-10-16T12:21:46;46.60;31.80
20680;DHT22;10499;47.494;7.608;2022-10-16T12:24:34;46.00;32.20
20680;DHT22;10499;47.494;7.608;2022-10-16T12:27:01;45.70;32.50
20680;DHT22;10499;47.494;7.608;2022-10-16T12:30:02;46.50;31.20
20680;DHT22;10499;47.494;7.608;2022-10-16T12:32:30;46.80;30.90
20680;DHT22;10499;47.494;7.608;2022-10-16T12:34:57;46.40;31.50
20680;DHT22;10499;47.494;7.608;2022-10-16T12:37:37;46.60;31.70
20680;DHT22;10499;47.494;7.608;2022-10-16T12:40:27;46.00;31.80
20680;DHT22;10499;47.494;7.608;2022-10-16T12:42:53;46.30;31.70
20680;DHT22;10499;47.494;7.608;2022-10-16T12:45:29;46.80;31.30
20680;DHT22;10499;47.494;7.608;2022-10-16T12:47:57;46.40;30.90
20680;DHT22;10499;47.494;7.608;2022-10-16T12:50:36;46.80;30.60
20680;DHT22;10499;47.494;7.608;2022-10-16T12:53:03;46.70;30.90
20680;DHT22;10499;47.494;7.608;2022-10-16T12:55:39;46.70;29.00
20680;DHT22;10499;47.494;7.608;2022-10-16T12:58:27;44.90;29.40
20680;DHT22;10499;47.494;7.608;2022-10-16T13:01:07;44.00;31.00
20680;DHT22;10499;47.494;7.608;2022-10-16T13:03:40;42.90;32.70
20680;DHT22;10499;47.494;7.608;2022-10-16T13:06:18;43.60;34.40
20680;DHT22;10499;47.494;7.608;2022-10-16T13:20:22;43.00;33.90
20680;DHT22;10499;47.494;7.608;2022-10-16T13:28:08;42.90;33.60
20680;DHT22;10499;47.494;7.608;2022-10-16T13:30:52;42.90;31.10
20680;DHT22;10499;47.494;7.608;2022-10-16T13:35:57;42.60;32.80
20680;DHT22;10499;47.494;7.608;2022-10-16T13:38:28;42.30;34.00
20680;DHT22;10499;47.494;7.608;2022-10-16T13:40:59;41.90;30.70
20680;DHT22;10499;47.494;7.608;2022-10-16T13:43:42;41.30;30.90
20680;DHT22;10499;47.494;7.608;2022-10-16T13:46:19;41.30;32.70
20680;DHT22;10499;47.494;7.608;2022-10-16T13:49:15;40.90;32.60
20680;DHT22;10499;47.494;7.608;2022-10-16T13:51:41;40.30;32.70
20680;DHT22;10499;47.494;7.608;2022-10-16T13:54:09;39.30;35.40
20680;DHT22;10499;47.494;7.608;2022-10-16T13:56:39;37.80;36.90
20680;DHT22;10499;47.494;7.608;2022-10-16T13:59:22;37.00;37.30
20680;DHT22;10499;47.494;7.608;2022-10-16T14:01:48;37.00;39.20
20680;DHT22;10499;47.494;7.608;2022-10-16T14:04:15;36.90;38.50
20680;DHT22;10499;47.494;7.608;2022-10-16T14:06:43;36.60;39.30
20680;DHT22;10499;47.494;7.608;2022-10-16T14:09:24;36.30;38.10
20680;DHT22;10499;47.494;7.608;2022-10-16T14:11:58;35.60;39.30
20680;DHT22;10499;47.494;7.608;2022-10-16T14:14:24;35.40;40.20
20680;DHT22;10499;47.494;7.608;2022-10-16T14:16:52;34.70;40.90
20680;DHT22;10499;47.494;7.608;2022-10-16T14:19:24;34.30;42.50
20680;DHT22;10499;47.494;7.608;2022-10-16T14:21:53;34.00;43.50
20680;DHT22;10499;47.494;7.608;2022-10-16T14:26:58;33.60;43.50
20680;DHT22;10499;47.494;7.608;2022-10-16T14:29:25;33.50;45.40
20680;DHT22;10499;47.494;7.608;2022-10-16T14:34:33;33.10;45.30
20680;DHT22;10499;47.494;7.608;2022-10-16T14:37:25;32.70;45.80
20680;DHT22;10499;47.494;7.608;2022-10-16T14:39:52;32.20;46.10
20680;DHT22;10499;47.494;7.608;2022-10-16T14:42:21;31.90;48.20
20680;DHT22;10499;47.494;7.608;2022-10-16T14:44:50;31.90;48.60
20680;DHT22;10499;47.494;7.608;2022-10-16T14:47:23;31.90;48.50
20680;DHT22;10499;47.494;7.608;2022-10-16T14:49:52;31.90;48.40
20680;DHT22;10499;47.494;7.608;2022-10-16T14:52:20;32.10;48.80
20680;DHT22;10499;47.494;7.608;2022-10-16T14:54:50;32.20;45.10
20680;DHT22;10499;47.494;7.608;2022-10-16T14:57:22;32.20;45.80
20680;DHT22;10499;47.494;7.608;2022-10-16T14:59:49;32.10;44.40
20680;DHT22;10499;47.494;7.608;2022-10-16T15:05:28;32.40;50.40
20680;DHT22;10499;47.494;7.608;2022-10-16T15:07:54;32.40;50.60
20680;DHT22;10499;47.494;7.608;2022-10-16T15:10:41;32.40;50.20
20680;DHT22;10499;47.494;7.608;2022-10-16T15:13:13;32.20;50.50
20680;DHT22;10499;47.494;7.608;2022-10-16T15:15:47;32.00;50.60
20680;DHT22;10499;47.494;7.608;2022-10-16T15:18:25;31.80;51.60
20680;DHT22;10499;47.494;7.608;2022-10-16T15:20:51;31.60;53.30
20680;DHT22;10499;47.494;7.608;2022-10-16T15:23:19;31.40;54.30
20680;DHT22;10499;47.494;7.608;2022-10-16T15:25:48;31.10;55.10
20680;DHT22;10499;47.494;7.608;2022-10-16T15:28:15;30.80;56.30
20680;DHT22;10499;47.494;7.608;2022-10-16T15:30:41;30.40;57.40
20680;DHT22;10499;47.494;7.608;2022-10-16T15:33:16;30.20;58.10
20680;DHT22;10499;47.494;7.608;2022-10-16T15:35:46;29.90;58.90
20680;DHT22;10499;47.494;7.608;2022-10-16T15:38:12;29.40;59.70
20680;DHT22;10499;47.494;7.608;2022-10-16T15:40:39;29.10;60.60
20680;DHT22;10499;47.494;7.608;2022-10-16T15:43:05;28.90;61.70
20680;DHT22;10499;47.494;7.608;2022-10-16T15:45:33;28.70;62.40
20680;DHT22;10499;47.494;7.608;2022-10-16T15:47:59;28.50;62.80
20680;DHT22;10499;47.494;7.608;2022-10-16T15:50:24;28.30;63.50
20680;DHT22;10499;47.494;7.608;2022-10-16T15:52:51;28.20;63.80
20680;DHT22;10499;47.494;7.608;2022-10-16T15:55:17;28.00;64.70
20680;DHT22;10499;47.494;7.608;2022-10-16T15:57:45;27.80;65.20
20680;DHT22;10499;47.494;7.608;2022-10-16T16:00:17;27.70;65.80
20680;DHT22;10499;47.494;7.608;2022-10-16T16:02:43;27.40;66.20
20680;DHT22;10499;47.494;7.608;2022-10-16T16:05:10;27.00;67.60
20680;DHT22;10499;47.494;7.608;2022-10-16T16:07:37;26.70;67.90
20680;DHT22;10499;47.494;7.608;2022-10-16T16:10:05;26.40;68.90
20680;DHT22;10499;47.494;7.608;2022-10-16T16:12:31;26.30;69.80
20680;DHT22;10499;47.494;7.608;2022-10-16T16:14:57;26.10;70.70
20680;DHT22;10499;47.494;7.608;2022-10-16T16:17:22;25.90;71.40
20680;DHT22;10499;47.494;7.608;2022-10-16T16:19:50;25.80;72.70
20680;DHT22;10499;47.494;7.608;2022-10-16T16:22:15;25.70;72.10
20680;DHT22;10499;47.494;7.608;2022-10-16T16:24:41;25.50;72.80
20680;DHT22;10499;47.494;7.608;2022-10-16T16:27:07;25.40;75.50
20680;DHT22;10499;47.494;7.608;2022-10-16T16:29:33;25.20;76.30
20680;DHT22;10499;47.494;7.608;2022-10-16T16:32:02;25.00;75.10
20680;DHT22;10499;47.494;7.608;2022-10-16T16:34:28;24.80;77.80
20680;DHT22;10499;47.494;7.608;2022-10-16T16:36:55;24.60;78.60
20680;DHT22;10499;47.494;7.608;2022-10-16T16:39:21;24.40;79.40
20680;DHT22;10499;47.494;7.608;2022-10-16T16:41:47;24.20;79.90
20680;DHT22;10499;47.494;7.608;2022-10-16T16:44:14;24.00;80.80
20680;DHT22;10499;47.494;7.608;2022-10-16T16:46:40;23.90;81.80
20680;DHT22;10499;47.494;7.608;2022-10-16T16:49:10;23.70;81.70
20680;DHT22;10499;47.494;7.608;2022-10-16T16:51:37;23.50;81.70
20680;DHT22;10499;47.494;7.608;2022-10-16T16:54:03;23.30;82.70
20680;DHT22;10499;47.494;7.608;2022-10-16T16:56:28;23.10;83.80
20680;DHT22;10499;47.494;7.608;2022-10-16T16:58:56;22.90;84.40
20680;DHT22;10499;47.494;7.608;2022-10-16T17:01:24;22.70;86.10
20680;DHT22;10499;47.494;7.608;2022-10-16T17:03:52;22.50;86.50
20680;DHT22;10499;47.494;7.608;2022-10-16T17:06:19;22.40;87.80
20680;DHT22;10499;47.494;7.608;2022-10-16T17:08:46;22.30;88.10
20680;DHT22;10499;47.494;7.608;2022-10-16T17:11:16;22.20;88.80
20680;DHT22;10499;47.494;7.608;2022-10-16T17:13:42;22.00;89.30
20680;DHT22;10499;47.494;7.608;2022-10-16T17:16:08;21.80;89.10
20680;DHT22;10499;47.494;7.608;2022-10-16T17:18:34;21.70;90.00
20680;DHT22;10499;47.494;7.608;2022-10-16T17:21:02;21.60;90.20
20680;DHT22;10499;47.494;7.608;2022-10-16T17:23:29;21.50;90.30
20680;DHT22;10499;47.494;7.608;2022-10-16T17:25:55;21.30;90.30
20680;DHT22;10499;47.494;7.608;2022-10-16T17:28:20;21.30;90.70
20680;DHT22;10499;47.494;7.608;2022-10-16T17:30:46;21.20;91.00
20680;DHT22;10499;47.494;7.608;2022-10-16T17:33:12;21.10;91.20
20680;DHT22;10499;47.494;7.608;2022-10-16T17:35:43;21.00;91.60
20680;DHT22;10499;47.494;7.608;2022-10-16T17:38:10;20.90;92.00
20680;DHT22;10499;47.494;7.608;2022-10-16T17:40:37;20.80;92.20